createdAt,value
2023-08-29T08:19:23.322Z,97223.90
2023-08-29T08:21:53.622Z,97220.13
2023-08-29T08:24:25.967Z,97223.19
2023-08-29T08:26:56.337Z,97226.51
2023-08-29T08:29:25.745Z,97230.22
2023-08-29T08:31:55.287Z,97230.96
2023-08-29T08:34:24.440Z,97226.49
2023-08-29T08:36:54.538Z,97229.27
2023-08-29T08:39:24.147Z,97230.67
2023-08-29T08:41:54.624Z,97230.21
2023-08-29T08:44:25.549Z,97231.17
2023-08-29T08:46:55.645Z,97233.79
2023-08-29T08:49:26.232Z,97233.91
2023-08-29T08:51:57.575Z,97238.52
2023-08-29T08:54:27.992Z,97237.52
2023-08-29T08:56:59.874Z,97238.52
2023-08-29T08:59:29.415Z,97236.00
2023-08-29T09:01:58.935Z,97239.98
2023-08-29T09:04:28.763Z,97239.67
2023-08-29T09:06:57.841Z,97244.18
2023-08-29T09:09:27.596Z,97247.48
2023-08-29T09:11:58.840Z,97251.59
2023-08-29T09:14:28.885Z,97247.25
2023-08-29T09:17:00.609Z,97252.48
2023-08-29T09:19:37.016Z,97257.34
2023-08-29T09:22:07.711Z,97262.06
2023-08-29T09:24:38.170Z,97263.75
2023-08-29T09:27:13.412Z,97263.16
2023-08-29T09:29:43.383Z,97264.50
2023-08-29T09:32:17.912Z,97263.66
2023-08-29T09:34:48.786Z,97264.11
2023-08-29T09:37:18.411Z,97260.80
2023-08-29T09:39:49.656Z,97260.27
2023-08-29T09:42:21.208Z,97266.92
2023-08-29T09:44:54.403Z,97266.95
2023-08-29T09:47:28.913Z,97270.73
2023-08-29T09:49:58.961Z,97270.54
2023-08-29T09:52:31.221Z,97273.31
2023-08-29T09:55:04.833Z,97276.98
2023-08-29T09:57:37.474Z,97273.54
2023-08-29T10:00:10.800Z,97276.05
2023-08-29T10:02:42.187Z,97275.82
2023-08-29T10:05:14.357Z,97279.52
2023-08-29T10:07:47.186Z,97281.67
2023-08-29T10:10:17.522Z,97277.65
2023-08-29T10:12:49.766Z,97278.63
2023-08-29T10:15:20.030Z,97281.01
2023-08-29T10:17:50.653Z,97281.21
2023-08-29T10:20:22.890Z,97277.98
2023-08-29T10:22:53.688Z,97281.05
2023-08-29T10:25:23.729Z,97280.27
2023-08-29T10:27:53.302Z,97280.87
2023-08-29T10:30:28.292Z,97284.73
2023-08-29T10:32:58.641Z,97283.56
2023-08-29T10:35:33.317Z,97282.05
2023-08-29T10:38:04.021Z,97289.08
2023-08-29T10:40:37.597Z,97290.05
2023-08-29T10:43:19.848Z,97292.64
2023-08-29T10:46:01.745Z,97292.54
2023-08-29T10:48:31.882Z,97293.83
2023-08-29T10:51:10.827Z,97286.48
2023-08-29T10:53:49.336Z,97291.96
2023-08-29T10:56:20.046Z,97288.69
2023-08-29T10:58:50.040Z,97286.36
2023-08-29T11:01:29.650Z,97281.70
2023-08-29T11:04:01.789Z,97282.44
2023-08-29T11:06:54.160Z,97284.65
2023-08-29T11:09:24.904Z,97284.74
2023-08-29T11:12:08.523Z,97281.13
2023-08-29T11:14:54.020Z,97275.94
2023-08-29T11:17:27.686Z,97277.05
2023-08-29T11:19:59.513Z,97275.27
2023-08-29T11:22:33.256Z,97272.59
2023-08-29T11:25:03.445Z,97270.64
2023-08-29T11:27:41.017Z,97267.96
2023-08-29T11:30:22.533Z,97268.48
2023-08-29T11:33:00.772Z,97258.20
2023-08-29T11:35:30.579Z,97252.60
2023-08-29T11:38:00.676Z,97252.82
2023-08-29T11:40:42.089Z,97256.46
2023-08-29T11:43:45.262Z,97265.45
2023-08-29T11:46:10.871Z,97262.86
2023-08-29T11:48:41.038Z,97260.27
2023-08-29T11:51:12.394Z,97256.36
2023-08-29T11:53:42.130Z,97263.00
2023-08-29T11:56:13.584Z,97272.19
2023-08-29T11:58:45.809Z,97278.55
2023-08-29T12:01:18.239Z,97284.69
2023-08-29T12:03:49.285Z,97297.64
2023-08-29T12:06:20.658Z,97316.45
2023-08-29T12:08:52.639Z,97327.64
2023-08-29T12:11:23.625Z,97325.11
2023-08-29T12:14:07.328Z,97323.52
2023-08-29T12:16:39.575Z,97320.35
2023-08-29T12:19:16.988Z,97322.66
2023-08-29T12:21:59.259Z,97327.77
2023-08-29T12:24:30.227Z,97341.80
2023-08-29T12:27:03.103Z,97348.26
2023-08-29T12:29:35.059Z,97349.88
2023-08-29T12:32:05.022Z,97351.63
2023-08-29T12:34:34.742Z,97350.61
2023-08-29T12:37:05.202Z,97346.29
2023-08-29T12:39:36.858Z,97344.25
2023-08-29T12:42:18.923Z,97340.73
2023-08-29T12:46:00.078Z,97329.60
2023-08-29T12:48:30.990Z,97329.22
2023-08-29T12:51:00.786Z,97325.57
2023-08-29T12:53:32.456Z,97317.88
2023-08-29T12:56:02.031Z,97316.20
2023-08-29T12:58:31.307Z,97317.05
2023-08-29T13:01:00.697Z,97320.77
2023-08-29T13:03:30.030Z,97324.66
2023-08-29T13:05:59.694Z,97317.09
2023-08-29T13:08:29.015Z,97315.09
2023-08-29T13:10:58.572Z,97309.02
2023-08-29T13:13:28.845Z,97314.02
2023-08-29T13:15:58.506Z,97311.44
2023-08-29T13:18:28.874Z,97315.77
2023-08-29T13:20:59.530Z,97319.58
2023-08-29T13:23:29.368Z,97315.52
2023-08-29T13:25:59.014Z,97314.27
2023-08-29T13:28:28.992Z,97315.80
2023-08-29T13:31:02.884Z,97316.88
2023-08-29T13:33:37.495Z,97313.75
2023-08-29T13:36:08.420Z,97305.67
2023-08-29T13:38:38.192Z,97298.75
2023-08-29T13:41:09.464Z,97301.51
2023-08-29T13:43:39.971Z,97299.49
2023-08-29T13:46:10.921Z,97308.27
2023-08-29T13:48:41.375Z,97312.95
2023-08-29T13:51:11.214Z,97320.05
2023-08-29T13:53:40.438Z,97330.08
2023-08-29T13:56:10.379Z,97334.30
2023-08-29T13:58:39.895Z,97338.90
2023-08-29T14:01:11.416Z,97345.21
2023-08-29T14:03:42.453Z,97351.05
2023-08-29T14:06:14.373Z,97357.60
2023-08-29T14:08:45.350Z,97355.01
2023-08-29T14:11:15.195Z,97357.45
2023-08-29T14:13:45.276Z,97366.24
2023-08-29T14:16:15.598Z,97371.80
2023-08-29T14:18:47.452Z,97373.85
2023-08-29T14:21:19.509Z,97376.19
2023-08-29T14:23:48.714Z,97376.75
2023-08-29T14:26:18.581Z,97380.23
2023-08-29T14:28:48.088Z,97382.65
2023-08-29T14:31:26.511Z,97387.69
2023-08-29T14:33:56.520Z,97385.98
2023-08-29T14:36:26.524Z,97390.33
2023-08-29T14:38:57.953Z,97391.13
2023-08-29T14:41:28.684Z,97395.48
2023-08-29T14:43:58.159Z,97394.88
2023-08-29T14:46:27.461Z,97390.94
2023-08-29T14:48:57.671Z,97390.85
2023-08-29T14:51:27.856Z,97396.27
2023-08-29T14:53:58.565Z,97398.72
2023-08-29T14:56:28.453Z,97397.41
2023-08-29T14:58:58.747Z,97397.33
2023-08-29T15:01:28.609Z,97396.08
2023-08-29T15:03:57.851Z,97398.48
2023-08-29T15:06:27.873Z,97395.27
2023-08-29T15:08:57.787Z,97397.23
2023-08-29T15:11:27.136Z,97397.00
2023-08-29T15:13:57.337Z,97400.52
2023-08-29T15:16:26.524Z,97399.93
2023-08-29T15:18:56.488Z,97400.40
2023-08-29T15:21:26.474Z,97398.48
2023-08-29T15:23:56.014Z,97407.10
2023-08-29T15:26:25.454Z,97405.16
2023-08-29T15:28:55.210Z,97407.73
2023-08-29T15:31:24.575Z,97408.41
2023-08-29T15:33:53.973Z,97410.23
2023-08-29T15:36:26.803Z,97412.77
2023-08-29T15:38:56.093Z,97420.75
2023-08-29T15:41:25.680Z,97426.73
2023-08-29T15:43:54.999Z,97427.31
2023-08-29T15:46:24.497Z,97436.02
2023-08-29T15:48:53.782Z,97434.98
2023-08-29T15:51:22.690Z,97445.95
2023-08-29T15:53:53.618Z,97449.65
2023-08-29T15:56:23.218Z,97453.95
2023-08-29T15:58:52.953Z,97450.30
2023-08-29T16:01:23.172Z,97453.29
2023-08-29T16:03:53.713Z,97453.96
2023-08-29T16:06:23.738Z,97446.47
2023-08-29T16:08:53.767Z,97443.15
2023-08-29T16:11:24.522Z,97440.14
2023-08-29T16:13:55.820Z,97441.01
2023-08-29T16:16:27.025Z,97441.00
2023-08-29T16:18:57.433Z,97441.96
2023-08-29T16:21:27.001Z,97441.80
2023-08-29T16:23:57.447Z,97443.39
2023-08-29T16:26:27.159Z,97442.97
2023-08-29T16:28:57.672Z,97445.70
2023-08-29T16:31:27.810Z,97450.56
2023-08-29T16:33:57.709Z,97451.30
2023-08-29T16:36:27.106Z,97450.72
2023-08-29T16:38:56.656Z,97452.13
2023-08-29T16:41:25.998Z,97443.50
2023-08-29T16:43:58.424Z,97454.13
2023-08-29T16:46:28.727Z,97454.75
2023-08-29T16:48:58.065Z,97458.27
2023-08-29T16:51:27.352Z,97456.96
2023-08-29T16:53:56.395Z,97457.91
2023-08-29T16:56:25.955Z,97448.23
2023-08-29T16:58:55.347Z,97448.11
2023-08-29T17:01:25.068Z,97446.91
2023-08-29T17:03:56.138Z,97446.26
2023-08-29T17:06:26.194Z,97446.36
2023-08-29T17:08:57.182Z,97445.21
2023-08-29T17:11:26.520Z,97445.25
2023-08-29T17:13:56.114Z,97446.09
2023-08-29T17:16:26.231Z,97455.17
2023-08-29T17:18:57.740Z,97462.20
2023-08-29T17:21:27.185Z,97456.33
2023-08-29T17:23:56.937Z,97454.09
2023-08-29T17:26:26.822Z,97458.41
2023-08-29T17:28:57.402Z,97457.02
2023-08-29T17:31:28.649Z,97454.61
2023-08-29T17:33:58.161Z,97456.44
2023-08-29T17:36:27.441Z,97454.42
2023-08-29T17:38:56.671Z,97458.02
2023-08-29T17:41:27.682Z,97463.52
2023-08-29T17:43:57.668Z,97468.63
2023-08-29T17:46:27.362Z,97468.56
2023-08-29T17:48:57.615Z,97475.13
2023-08-29T17:51:27.411Z,97480.20
2023-08-29T17:53:57.153Z,97485.14
2023-08-29T17:56:26.943Z,97484.73
2023-08-29T17:58:56.991Z,97487.50
2023-08-29T18:01:26.579Z,97489.55
2023-08-29T18:03:57.931Z,97495.41
2023-08-29T18:06:29.239Z,97497.59
2023-08-29T18:08:59.821Z,97504.40
2023-08-29T18:11:31.970Z,97508.33
2023-08-29T18:14:03.216Z,97510.92
2023-08-29T18:16:33.197Z,97516.59
2023-08-29T18:19:04.174Z,97520.64
2023-08-29T18:21:35.434Z,97521.70
2023-08-29T18:24:08.214Z,97529.81
2023-08-29T18:26:39.022Z,97530.96
2023-08-29T18:29:09.038Z,97539.98
2023-08-29T18:31:39.867Z,97539.48
2023-08-29T18:34:10.436Z,97539.70
2023-08-29T18:36:40.054Z,97535.77
2023-08-29T18:39:10.454Z,97535.95
2023-08-29T18:41:40.486Z,97535.98
2023-08-29T18:44:10.476Z,97537.20
2023-08-29T18:46:39.607Z,97537.83
2023-08-29T18:49:09.877Z,97542.86
2023-08-29T18:51:39.700Z,97546.48
2023-08-29T18:54:09.720Z,97556.77
2023-08-29T18:56:39.514Z,97565.48
2023-08-29T18:59:09.253Z,97566.73
2023-08-29T19:01:39.113Z,97569.89
2023-08-29T19:04:09.054Z,97573.77
2023-08-29T19:06:39.227Z,97575.80
2023-08-29T19:09:09.552Z,97576.63
2023-08-29T19:11:39.516Z,97573.63
2023-08-29T19:14:09.448Z,97572.84
2023-08-29T19:16:39.689Z,97576.77
2023-08-29T19:19:13.867Z,97580.27
2023-08-29T19:21:43.853Z,97578.09
2023-08-29T19:24:14.383Z,97577.45
2023-08-29T19:26:44.967Z,97575.80
2023-08-29T19:29:17.894Z,97577.94
2023-08-29T19:31:51.932Z,97580.23
2023-08-29T19:34:23.696Z,97576.64
2023-08-29T19:36:55.699Z,97580.11
2023-08-29T19:39:26.688Z,97591.65
2023-08-29T19:41:58.320Z,97596.98
2023-08-29T19:44:29.999Z,97598.56
2023-08-29T19:47:04.714Z,97593.63
2023-08-29T19:49:40.895Z,97590.17
2023-08-29T19:52:11.875Z,97596.00
2023-08-29T19:54:42.324Z,97604.38
2023-08-29T19:57:12.187Z,97609.63
2023-08-29T19:59:42.410Z,97608.23
2023-08-29T20:02:14.595Z,97604.98
2023-08-29T20:04:46.308Z,97600.13
2023-08-29T20:07:16.654Z,97603.60
2023-08-29T20:09:46.718Z,97604.89
2023-08-29T20:12:16.960Z,97608.10
2023-08-29T20:14:46.780Z,97606.79
2023-08-29T20:17:16.702Z,97606.35
2023-08-29T20:19:46.368Z,97603.07
2023-08-29T20:22:15.650Z,97604.09
2023-08-29T20:24:46.655Z,97600.23
2023-08-29T20:27:18.136Z,97608.09
2023-08-29T20:29:52.753Z,97609.19
2023-08-29T20:32:23.844Z,97610.09
2023-08-29T20:34:55.097Z,97609.66
2023-08-29T20:37:24.913Z,97610.81
2023-08-29T20:39:54.580Z,97615.69
2023-08-29T20:42:24.427Z,97619.46
2023-08-29T20:44:56.273Z,97620.27
2023-08-29T20:47:26.879Z,97629.34
2023-08-29T20:49:56.578Z,97635.53
2023-08-29T20:52:27.615Z,97638.98
2023-08-29T20:54:57.396Z,97643.20
2023-08-29T20:57:26.689Z,97644.33
2023-08-29T20:59:56.363Z,97645.05
2023-08-29T21:02:26.814Z,97644.33
2023-08-29T21:04:56.114Z,97647.03
2023-08-29T21:07:25.739Z,97647.66
2023-08-29T21:09:55.426Z,97650.02
2023-08-29T21:12:26.315Z,97646.41
2023-08-29T21:14:55.765Z,97645.94
2023-08-29T21:17:28.000Z,97648.27
2023-08-29T21:19:57.827Z,97646.77
2023-08-29T21:22:27.407Z,97648.83
2023-08-29T21:24:56.677Z,97649.52
2023-08-29T21:27:26.728Z,97652.45
2023-08-29T21:29:56.117Z,97655.55
2023-08-29T21:32:25.443Z,97658.52
2023-08-29T21:34:54.575Z,97659.78
2023-08-29T21:37:23.932Z,97659.16
2023-08-29T21:39:53.427Z,97660.23
2023-08-29T21:42:22.906Z,97666.91
2023-08-29T21:44:53.137Z,97669.48
2023-08-29T21:47:22.447Z,97677.16
2023-08-29T21:49:51.662Z,97677.44
2023-08-29T21:52:21.040Z,97679.39
2023-08-29T21:54:50.554Z,97674.86
2023-08-29T21:57:19.836Z,97673.25
2023-08-29T21:59:48.903Z,97672.58
2023-08-29T22:02:18.139Z,97671.27
2023-08-29T22:04:50.182Z,97670.13
2023-08-29T22:07:19.597Z,97673.20
2023-08-29T22:09:48.752Z,97670.09
2023-08-29T22:12:18.526Z,97666.95
2023-08-29T22:14:47.979Z,97664.20
2023-08-29T22:17:16.948Z,97660.81
2023-08-29T22:19:45.939Z,97660.01
2023-08-29T22:22:14.988Z,97657.20
2023-08-29T22:24:44.833Z,97660.94
2023-08-29T22:27:13.964Z,97659.34
2023-08-29T22:29:43.187Z,97655.73
2023-08-29T22:32:12.779Z,97655.70
2023-08-29T22:34:43.234Z,97658.30
2023-08-29T22:37:14.313Z,97657.04
2023-08-29T22:39:44.317Z,97660.93
2023-08-29T22:42:14.401Z,97658.80
2023-08-29T22:44:47.202Z,97653.83
2023-08-29T22:47:17.079Z,97647.55
2023-08-29T22:49:47.327Z,97643.66
2023-08-29T22:52:19.058Z,97645.25
2023-08-29T22:54:48.291Z,97649.33
2023-08-29T22:57:18.811Z,97651.60
2023-08-29T22:59:49.253Z,97653.86
2023-08-29T23:02:18.884Z,97646.04
2023-08-29T23:04:48.511Z,97642.34
2023-08-29T23:07:17.807Z,97646.48
2023-08-29T23:09:48.460Z,97650.94
2023-08-29T23:12:18.351Z,97657.23
2023-08-29T23:14:48.066Z,97657.61
2023-08-29T23:17:18.593Z,97657.11
2023-08-29T23:19:47.997Z,97660.02
2023-08-29T23:22:17.275Z,97658.85
2023-08-29T23:24:47.327Z,97659.64
2023-08-29T23:27:16.899Z,97661.30
2023-08-29T23:29:46.541Z,97659.92
2023-08-29T23:32:16.590Z,97652.59
2023-08-29T23:34:47.346Z,97645.67
2023-08-29T23:37:16.967Z,97644.20
2023-08-29T23:39:46.509Z,97645.23
2023-08-29T23:42:17.140Z,97643.59
2023-08-29T23:44:46.272Z,97644.84
2023-08-29T23:47:15.755Z,97643.89
2023-08-29T23:49:46.498Z,97644.29
2023-08-29T23:52:15.984Z,97641.33
2023-08-29T23:54:45.413Z,97637.21
2023-08-29T23:57:14.611Z,97634.66
2023-08-29T23:59:43.920Z,97640.79
